ADDS METAR Data INFO
IDs: Format: Raw Decoded Include TAF

Data at: 0858 UTC 19 Jun 2018

KM19 190856Z AUTO 18006KT 10SM CLR 22/21 A3005 RMK AO2 SLP176 T02220206 55006
KM19 190756Z AUTO 18003KT 10SM CLR 23/21 A3004 RMK AO2 SLP173 T02280206
KM19 190656Z AUTO 16005KT 10SM CLR 22/21 A3005 RMK AO2 SLP177 T02220211
KM19 190556Z AUTO 19006KT 10SM CLR 24/21 A3007 RMK AO2 SLP182 T02390211 10322 20239 50006
KM19 190456Z AUTO 20007KT 10SM CLR 24/21 A3008 RMK AO2 SLP185 T02440211 403440233
KM19 190356Z AUTO 19006KT 10SM CLR 26/21 A3007 RMK AO2 SLP182 T02560211
KM19 190256Z AUTO 20007KT 10SM CLR 27/22 A3005 RMK AO2 SLP176 T02670217 53010
KM19 190156Z AUTO 20012KT 10SM CLR 28/21 A3003 RMK AO2 SLP169 T02830211
KM19 190056Z AUTO 20013KT 10SM SCT070 30/21 A3002 RMK AO2 SLP166 T03000211
KM19 182356Z AUTO 18008KT 10SM CLR 32/21 A3002 RMK AO2 SLP165 T03220206 10344 20317 56013
KM19 182256Z AUTO 17009KT 10SM CLR 33/21 A3002 RMK AO2 SLP167 T03330206
KM19 182156Z AUTO 19009KT 10SM BKN060 33/20 A3004 RMK AO2 SLP174 T03280200
KM19 182056Z AUTO 19011KT 9SM FEW055 33/20 A3006 RMK AO2 SLP179 T03330200 56017
KM19 181956Z AUTO 20013KT 10SM FEW055 33/19 A3007 RMK AO2 SLP183 T03330189
KM19 181856Z AUTO 17014KT 10SM FEW048 33/21 A3009 RMK AO2 SLP189 T03280211
KM19 181756Z AUTO 23009G17KT 8SM SCT046 33/21 A3011 RMK AO2 SLP195 T03280211 10328 20244 58008
KM19 181656Z AUTO 23007G15KT 10SM FEW042 32/21 A3012 RMK AO2 SLP201 T03170211
KM19 181556Z AUTO 23011KT 10SM CLR 31/21 A3013 RMK AO2 SLP204 T03060211
KM19 181456Z AUTO 24010KT 10SM CLR 29/22 A3013 RMK AO2 SLP204 T02890217 51013
KM19 181256Z AUTO 21007KT 10SM CLR 26/22 A3012 RMK AO2 SLP199 T02610222
KM19 181156Z AUTO 18007KT 10SM CLR 24/22 A3009 RMK AO2 SLP191 T02440222 10261 20233 51014
KM19 181056Z AUTO 19007KT 10SM CLR 23/22 A3008 RMK AO2 SLP186 T02330217
KM19 180956Z AUTO 19007KT 10SM CLR 24/22 A3007 RMK AO2 SLP182 T02390222
KM19 180856Z AUTO 19006KT 10SM CLR 24/22 A3005 RMK AO2 SLP177 T02440222 55002
KM19 180756Z AUTO 19006KT 10SM CLR 25/22 A3005 RMK AO2 SLP175 T02500217
KM19 180656Z AUTO 19006KT 10SM CLR 25/22 A3005 RMK AO2 SLP176 T02500222
KM19 180556Z AUTO 19006KT 10SM CLR 26/22 A3006 RMK AO2 SLP179 T02610222 10322 20261 50003
KM19 180456Z AUTO 17007KT 10SM CLR 27/22 A3006 RMK AO2 SLP181 T02670222 403440233
KM19 180356Z AUTO 18007KT 10SM CLR 27/23 A3006 RMK AO2 SLP180 T02720228
KM19 180256Z AUTO 18007KT 10SM CLR 28/23 A3005 RMK AO2 SLP177 T02780233 53017
KM19 180156Z AUTO 18007KT 10SM CLR 29/23 A3003 RMK AO2 SLP168 T02890233
KM19 180056Z AUTO 18007KT 10SM CLR 31/23 A3001 RMK AO2 SLP163 T03060228
KM19 172356Z AUTO 21009KT 10SM CLR 32/22 A3000 RMK AO2 SLP160 T03220222 10344 20322 56008
KM19 172256Z AUTO 19010KT 10SM FEW048 33/22 A3001 RMK AO2 SLP162 T03330222
KM19 172156Z AUTO 18013KT 10SM CLR 34/23 A3002 RMK AO2 SLP164 T03390228